Seas 1 — A8ZT2 — position and weather

sailwx.info

Track history (hours):
 
Tides and Currents Weather Stations Pressure Air Temp Water Temp Dewpoint Dewpoint Depression Visibility Wind Speed Wind Dir Waves Ship Positions

Seas 1

Last reported at 2018-Feb-21 20:14 UTC. Time now 2018-Feb-22 10:30 UTC.
Position S 24°04' W 046°20'.

Length 190 m; draft 7 m.

Type: Cargo ship. MMSI: 636015292.

Date/timePositionNaut miles runAvg speedWind from/ knotsBaromVisibWave heightAir tempDewpointWater temp
2018-Feb-21 20:14S 24°04' W 046°20'0 0.1
2018-Feb-21 19:32S 24°04' W 046°20'138 6.4
2018-Feb-20 21:56S 23°53' W 043°50'612.0
2018-Feb-20 21:26S 23°51' W 043°43'1012.1
2018-Feb-20 20:36S 23°49' W 043°33'112.1
2018-Feb-20 20:28S 23°48' W 043°31'812.0
2018-Feb-20 19:48S 23°46' W 043°23'411.9
2018-Feb-20 19:31S 23°45' W 043°19'611.8
2018-Feb-20 19:01S 23°44' W 043°13'1711.7
2018-Feb-20 17:35S 23°39' W 042°55'411.6
2018-Feb-20 17:13S 23°38' W 042°51'211.3
2018-Feb-20 17:00S 23°38' W 042°48'611.5
2018-Feb-20 16:27S 23°36' W 042°42'611.5
2018-Feb-20 15:57S 23°35' W 042°35'511.5
2018-Feb-20 15:30S 23°34' W 042°30'  
Track history (hours):
 
Tides and Currents Weather Stations Pressure Air Temp Water Temp Dewpoint Dewpoint Depression Visibility Wind Speed Wind Dir Waves Ship Positions

Seas 1

Last reported at 2018-Feb-21 20:14 UTC. Time now 2018-Feb-22 10:30 UTC.
Position S 24°04' W 046°20'.

Length 190 m; draft 7 m.

Type: Cargo ship. MMSI: 636015292.

Date/timePositionNaut miles runAvg speedWind from/ knotsBaromVisibWave heightAir tempDewpointWater temp
2018-Feb-21 20:14S 24°04' W 046°20'0 0.1
2018-Feb-21 19:32S 24°04' W 046°20'138 6.4
2018-Feb-20 21:56S 23°53' W 043°50'612.0
2018-Feb-20 21:26S 23°51' W 043°43'1012.1
2018-Feb-20 20:36S 23°49' W 043°33'112.1
2018-Feb-20 20:28S 23°48' W 043°31'812.0
2018-Feb-20 19:48S 23°46' W 043°23'411.9
2018-Feb-20 19:31S 23°45' W 043°19'611.8
2018-Feb-20 19:01S 23°44' W 043°13'1711.7
2018-Feb-20 17:35S 23°39' W 042°55'411.6
2018-Feb-20 17:13S 23°38' W 042°51'211.3
2018-Feb-20 17:00S 23°38' W 042°48'611.5
2018-Feb-20 16:27S 23°36' W 042°42'611.5
2018-Feb-20 15:57S 23°35' W 042°35'511.5
2018-Feb-20 15:30S 23°34' W 042°30'  

Dump ship's entire track history